createdAt,value
2017-10-18T00:00:03.410Z,12.4
2017-10-18T00:05:03.020Z,12.4
2017-10-18T00:10:02.435Z,12.3
2017-10-18T00:15:05.159Z,12.3
2017-10-18T00:20:10.034Z,12.2
2017-10-18T00:25:05.682Z,12.2
2017-10-18T00:30:05.464Z,12.1
2017-10-18T00:35:02.690Z,12.1
2017-10-18T00:40:03.065Z,12
2017-10-18T00:45:03.192Z,12.1
2017-10-18T00:50:08.098Z,11.9
2017-10-18T00:55:15.355Z,11.9
2017-10-18T01:00:20.216Z,11.9
2017-10-18T01:05:18.401Z,11.8
2017-10-18T01:10:02.554Z,11.8
2017-10-18T01:15:05.311Z,11.7
2017-10-18T01:20:07.667Z,11.7
2017-10-18T01:25:03.332Z,11.7
2017-10-18T01:30:10.685Z,11.6
2017-10-18T01:35:02.812Z,11.6
2017-10-18T01:40:05.659Z,11.5
2017-10-18T01:45:07.385Z,11.5
2017-10-18T01:50:03.188Z,11.5
2017-10-18T01:55:02.920Z,11.5
2017-10-18T02:00:02.750Z,11.4
2017-10-18T02:05:02.449Z,11.4
2017-10-18T02:10:02.730Z,11.3
2017-10-18T02:15:13.041Z,11.2
2017-10-18T02:20:05.247Z,6.4
2017-10-18T02:25:12.553Z,11.1
2017-10-18T02:30:28.552Z,11.1
2017-10-18T02:35:05.485Z,11.1
2017-10-18T02:40:21.031Z,11.1
2017-10-18T02:50:05.824Z,11
2017-10-18T02:55:08.042Z,10.9
2017-10-18T03:00:02.725Z,10.9
2017-10-18T03:05:05.001Z,10.9
2017-10-18T03:10:05.362Z,10.9
2017-10-18T03:15:23.198Z,10.9
2017-10-18T03:20:05.414Z,10.8
2017-10-18T03:25:02.457Z,10.8
2017-10-18T03:30:10.778Z,10.8
2017-10-18T03:35:05.370Z,10.8
2017-10-18T03:40:05.748Z,10.7
2017-10-18T03:45:03.333Z,10.7
2017-10-18T03:50:05.677Z,10.8
2017-10-18T03:55:02.713Z,10.7
2017-10-18T04:00:02.572Z,10.7
2017-10-18T04:05:03.154Z,10.7
2017-10-18T04:10:17.671Z,10.6
2017-10-18T04:15:02.575Z,10.6
2017-10-18T04:20:04.926Z,10.5
2017-10-18T04:25:10.586Z,10.4
2017-10-18T04:30:10.363Z,10.4
2017-10-18T04:35:04.948Z,10.4
2017-10-18T04:40:02.643Z,10.4
2017-10-18T04:45:02.784Z,10.4
2017-10-18T04:50:02.523Z,10.3
2017-10-18T04:55:08.168Z,10.2
2017-10-18T05:00:07.946Z,10.2
2017-10-18T05:05:02.461Z,10.2
2017-10-18T05:10:02.718Z,10.2
2017-10-18T05:15:25.480Z,10.2
2017-10-18T05:20:27.888Z,10.1
2017-10-18T05:25:03.096Z,10.1
2017-10-18T05:30:05.437Z,10.2
2017-10-18T05:35:04.895Z,10.2
2017-10-18T05:40:07.671Z,10.2
2017-10-18T05:45:02.660Z,10.2
2017-10-18T05:50:02.450Z,10.2
2017-10-18T05:55:08.041Z,10.2
2017-10-18T06:00:05.333Z,10.2
2017-10-18T06:05:02.332Z,10.2
2017-10-18T06:10:02.598Z,10.3
2017-10-18T06:15:10.293Z,10.4
2017-10-18T06:20:07.546Z,10.5
2017-10-18T06:25:08.139Z,10.6
2017-10-18T06:30:02.836Z,10.6
2017-10-18T06:35:02.419Z,10.7
2017-10-18T06:40:05.327Z,10.9
2017-10-18T06:45:02.856Z,10.9
2017-10-18T06:50:05.171Z,11.2
2017-10-18T06:55:03.279Z,11.2
2017-10-18T07:00:08.143Z,11.3
2017-10-18T07:05:02.753Z,11.3
2017-10-18T07:10:05.637Z,11.5
2017-10-18T07:15:03.191Z,11.5
2017-10-18T07:20:03.019Z,11.6
2017-10-18T07:25:05.226Z,11.7
2017-10-18T07:30:17.642Z,11.9
2017-10-18T07:35:03.186Z,11.8
2017-10-18T07:40:25.231Z,12.1
2017-10-18T07:45:07.762Z,12.2
2017-10-18T07:50:02.549Z,12.2
2017-10-18T07:55:05.789Z,12.5
2017-10-18T08:00:05.611Z,12.6
2017-10-18T08:05:05.350Z,12.8
2017-10-18T08:10:10.826Z,12.9
2017-10-18T08:15:02.342Z,12.9
2017-10-18T08:20:10.902Z,13
2017-10-18T08:25:08.038Z,12.8
2017-10-18T08:30:02.840Z,13.2
2017-10-18T08:35:05.140Z,13.5
2017-10-18T08:40:08.000Z,13.5
2017-10-18T08:45:05.743Z,13.6
2017-10-18T08:50:10.709Z,13.8
2017-10-18T08:55:02.903Z,13.7
2017-10-18T09:00:02.804Z,13.9
2017-10-18T09:05:05.131Z,14.2
2017-10-18T09:10:05.545Z,14.4
2017-10-18T09:15:17.520Z,14.4
2017-10-18T09:20:03.305Z,14.5
2017-10-18T09:25:03.173Z,14.6
2017-10-18T09:30:03.082Z,14.7
2017-10-18T09:35:05.511Z,14.9
2017-10-18T09:40:17.720Z,15
2017-10-18T09:45:33.269Z,15.1
2017-10-18T09:50:10.552Z,15.1
2017-10-18T09:55:07.908Z,15.2
2017-10-18T10:00:07.886Z,15.3
2017-10-18T10:05:02.739Z,15.3
2017-10-18T10:10:10.873Z,15.5
2017-10-18T10:15:05.182Z,15.6
2017-10-18T10:20:05.241Z,15.8
2017-10-18T10:25:07.705Z,16
2017-10-18T10:30:02.696Z,16
2017-10-18T10:35:38.052Z,16.3
2017-10-18T10:40:03.164Z,16.3
2017-10-18T10:45:05.152Z,16.7
2017-10-18T10:50:02.674Z,16.7
2017-10-18T10:55:02.708Z,16.9
2017-10-18T11:00:07.838Z,17.3
2017-10-18T11:05:07.812Z,17.4
2017-10-18T11:10:05.823Z,17.5
2017-10-18T11:15:07.933Z,17.7
2017-10-18T11:20:02.915Z,17.7
2017-10-18T11:25:33.373Z,18.1
2017-10-18T11:30:10.742Z,18.2
2017-10-18T11:35:03.311Z,18.2
2017-10-18T11:40:05.473Z,18.5
2017-10-18T11:45:02.517Z,18.4
2017-10-18T11:50:02.663Z,18.6
2017-10-18T11:55:02.805Z,18.7
2017-10-18T12:00:05.499Z,19
2017-10-18T12:05:05.943Z,19.2
2017-10-18T12:10:05.630Z,19.5
2017-10-18T12:15:02.522Z,19.5
2017-10-18T12:20:05.261Z,20.3
2017-10-18T12:25:05.405Z,20.7
2017-10-18T12:30:10.747Z,20.8
2017-10-18T12:35:30.214Z,20.7
2017-10-18T12:40:03.148Z,20.7
2017-10-18T12:45:05.408Z,20.7
2017-10-18T12:50:03.130Z,20.7
2017-10-18T12:55:15.089Z,20.5
2017-10-18T13:00:07.695Z,20.7
2017-10-18T13:05:10.523Z,20.8
2017-10-18T13:10:17.786Z,21.1
2017-10-18T13:15:05.044Z,21.5
2017-10-18T13:20:02.760Z,21.5
2017-10-18T13:25:03.127Z,22
2017-10-18T13:30:04.986Z,21.7
2017-10-18T13:35:23.089Z,21.6
2017-10-18T13:40:02.609Z,21.6
2017-10-18T13:45:05.036Z,21.7
2017-10-18T13:50:02.749Z,21.6
2017-10-18T13:55:08.264Z,22.4
2017-10-18T14:00:05.024Z,22.6
2017-10-18T14:05:07.942Z,22.6
2017-10-18T14:10:17.847Z,22.7
2017-10-18T14:15:07.644Z,22.9
2017-10-18T14:20:05.429Z,23
2017-10-18T14:25:02.375Z,23
2017-10-18T14:30:05.288Z,22.7
2017-10-18T14:35:20.913Z,22.4
2017-10-18T14:40:03.019Z,22.4
2017-10-18T14:45:15.618Z,22.2
2017-10-18T14:50:03.262Z,22.1
2017-10-18T14:55:10.275Z,21.7
2017-10-18T15:00:05.527Z,21.4
2017-10-18T15:05:02.396Z,21.4
2017-10-18T15:10:05.686Z,20.7
2017-10-18T15:15:05.542Z,20.3
2017-10-18T15:20:23.483Z,19.9
2017-10-18T15:25:02.549Z,19.9
2017-10-18T15:30:05.296Z,19.3
2017-10-18T15:35:03.023Z,19.3
2017-10-18T15:40:02.704Z,19
2017-10-18T15:45:07.433Z,18.5
2017-10-18T15:50:07.590Z,18.4
2017-10-18T15:55:07.731Z,18.2
2017-10-18T16:00:05.373Z,18
2017-10-18T16:05:05.472Z,17.9
2017-10-18T16:10:07.684Z,17.7
2017-10-18T16:15:05.792Z,17.6
2017-10-18T16:20:17.524Z,17.4
2017-10-18T16:25:02.494Z,17.4
2017-10-18T16:30:15.284Z,17
2017-10-18T16:35:02.755Z,17.1
2017-10-18T16:40:08.393Z,16.7
2017-10-18T16:45:02.974Z,16.8
2017-10-18T16:50:05.542Z,16.5
2017-10-18T16:55:03.121Z,16.5
2017-10-18T17:00:08.290Z,16.2
2017-10-18T17:05:18.369Z,16
2017-10-18T17:10:05.295Z,15.9
2017-10-18T17:15:10.922Z,15.7
2017-10-18T17:20:07.440Z,15.6
2017-10-18T17:25:02.337Z,15.6
2017-10-18T17:30:20.094Z,15.3
2017-10-18T17:35:07.504Z,15.1
2017-10-18T17:40:08.023Z,15
2017-10-18T17:45:15.987Z,14.9
2017-10-18T17:50:03.453Z,15
2017-10-18T17:55:05.838Z,14.8
2017-10-18T18:00:08.392Z,14.7
2017-10-18T18:05:08.288Z,14.5
2017-10-18T18:10:05.191Z,14.5
2017-10-18T18:15:08.216Z,14.4
2017-10-18T18:20:05.644Z,14.3
2017-10-18T18:25:05.561Z,14.2
2017-10-18T18:30:02.935Z,14.2
2017-10-18T18:35:30.708Z,13.9
2017-10-18T18:40:08.391Z,13.9
2017-10-18T18:45:30.485Z,13.8
2017-10-18T18:50:02.592Z,13.8
2017-10-18T18:55:15.090Z,13.6
2017-10-18T19:00:03.343Z,13.6
2017-10-18T19:05:03.199Z,13.6
2017-10-18T19:10:07.656Z,13.4
2017-10-18T19:15:02.930Z,13.4
2017-10-18T19:20:05.389Z,13.3
2017-10-18T19:25:02.694Z,13.3
2017-10-18T19:35:02.455Z,13.2
2017-10-18T19:40:17.966Z,13
2017-10-18T19:45:05.660Z,12.9
2017-10-18T19:50:10.629Z,12.9
2017-10-18T19:55:02.908Z,12.9
2017-10-18T20:00:07.850Z,12.8
2017-10-18T20:05:07.660Z,12.7
2017-10-18T20:10:13.143Z,12.6
2017-10-18T20:15:08.292Z,12.6
2017-10-18T20:20:10.751Z,12.6
2017-10-18T20:25:05.502Z,12.5
2017-10-18T20:30:05.388Z,12.4
2017-10-18T20:35:02.662Z,12.4
2017-10-18T20:40:05.578Z,12.3
2017-10-18T20:45:08.416Z,12.2
2017-10-18T20:50:20.935Z,12.2
2017-10-18T20:55:02.982Z,12.3
2017-10-18T21:00:02.903Z,12.2
2017-10-18T21:05:05.190Z,12
2017-10-18T21:10:05.617Z,12
2017-10-18T21:15:15.932Z,11.9
2017-10-18T21:20:03.078Z,11.9
2017-10-18T21:25:05.365Z,11.7
2017-10-18T21:30:02.712Z,11.8
2017-10-18T21:35:04.957Z,11.6
2017-10-18T21:40:10.316Z,11.6
2017-10-18T21:45:02.990Z,11.6
2017-10-18T21:50:20.549Z,11.5
2017-10-18T21:55:02.509Z,11.5
2017-10-18T22:00:05.891Z,11.5
2017-10-18T22:05:13.142Z,11.4
2017-10-18T22:10:03.338Z,11.4
2017-10-18T22:15:05.016Z,11.3
2017-10-18T22:20:03.396Z,11.3
2017-10-18T22:25:05.589Z,11.3
2017-10-18T22:30:05.419Z,11.2
2017-10-18T22:35:05.058Z,11.2
2017-10-18T22:40:05.375Z,11.1
2017-10-18T22:45:10.654Z,11.1
2017-10-18T22:50:10.427Z,11
2017-10-18T22:55:05.057Z,11
2017-10-18T23:00:10.882Z,10.9
2017-10-18T23:05:02.965Z,10.9
2017-10-18T23:10:18.597Z,10.8
2017-10-18T23:15:07.583Z,10.8
2017-10-18T23:20:03.308Z,10.7
2017-10-18T23:25:25.736Z,10.8
2017-10-18T23:30:02.729Z,10.8
2017-10-18T23:35:02.362Z,10.8
2017-10-18T23:40:05.221Z,10.8
2017-10-18T23:45:02.870Z,10.8
2017-10-18T23:50:05.208Z,10.7
2017-10-18T23:55:07.413Z,10.7
